Time;durP1;ratioP1;P1;durP2;ratioP2;P2;SDS_P1;SDS_P2;PMS_P1;PMS_P2;Temp;Humidity;BMP_temperature;BMP_pressure;BME280_temperature;BME280_humidity;BME280_pressure;Samples;Min_cycle;Max_cycle;Signal;HPM_P1;HPM_P2
2021/09/19 00:00:13;;;;;;;;;;;19.00;99.90;;;;;;2619788;54;19990;-71
2021/09/19 00:02:41;;;;;;;;;;;19.00;99.90;;;;;;2619380;54;20030;-71
2021/09/19 00:05:10;;;;;;;;;;;19.10;99.90;;;;;;2618930;46;20022;-70
2021/09/19 00:07:36;;;;;;;;;;;19.00;99.90;;;;;;2619307;54;19954;-71
2021/09/19 00:10:02;;;;;;;;;;;19.10;99.90;;;;;;2619387;54;19941;-70
2021/09/19 00:12:28;;;;;;;;;;;19.10;99.90;;;;;;2620115;39;20321;-73
2021/09/19 00:14:53;;;;;;;;;;;19.10;99.90;;;;;;2619727;54;19945;-76
2021/09/19 00:17:19;;;;;;;;;;;19.10;99.90;;;;;;2619893;39;20362;-70
2021/09/19 00:19:47;;;;;;;;;;;19.00;99.90;;;;;;2619135;46;20407;-70
2021/09/19 00:22:13;;;;;;;;;;;19.00;99.90;;;;;;2619451;54;19958;-71
2021/09/19 00:24:39;;;;;;;;;;;19.00;99.90;;;;;;2618840;46;19934;-73
2021/09/19 00:27:05;;;;;;;;;;;18.90;99.90;;;;;;2619686;54;19946;-71
2021/09/19 00:29:31;;;;;;;;;;;18.90;99.90;;;;;;2619416;54;19935;-73
2021/09/19 00:31:56;;;;;;;;;;;18.90;99.90;;;;;;2618760;46;19938;-72
2021/09/19 00:34:22;;;;;;;;;;;18.80;99.90;;;;;;2618955;47;19946;-70
2021/09/19 00:36:51;;;;;;;;;;;18.80;99.90;;;;;;2619421;54;19934;-71
2021/09/19 00:39:16;;;;;;;;;;;18.80;99.90;;;;;;2619011;47;19938;-71
2021/09/19 00:41:42;;;;;;;;;;;18.70;99.90;;;;;;2619426;54;19939;-70
2021/09/19 00:44:08;;;;;;;;;;;18.70;99.90;;;;;;2619833;46;20030;-71
2021/09/19 00:46:34;;;;;;;;;;;18.60;99.90;;;;;;2619980;54;19938;-72
2021/09/19 00:49:00;;;;;;;;;;;18.50;99.90;;;;;;2619707;54;19986;-72
2021/09/19 00:51:26;;;;;;;;;;;18.50;99.90;;;;;;2619870;54;19939;-72
2021/09/19 00:53:52;;;;;;;;;;;;;;;;;;2619744;54;19938;-70
2021/09/19 00:56:23;;;;;;;;;;;18.40;99.90;;;;;;2619395;54;19939;-73
2021/09/19 00:58:50;;;;;;;;;;;18.40;99.90;;;;;;2618679;47;19938;-72
2021/09/19 01:01:19;;;;;;;;;;;18.50;99.90;;;;;;2619721;54;19938;-77
2021/09/19 01:03:45;;;;;;;;;;;18.50;99.90;;;;;;2619660;54;19938;-76
2021/09/19 01:06:11;;;;;;;;;;;18.50;99.90;;;;;;2620137;54;19966;-71
2021/09/19 01:08:42;;;;;;;;;;;18.50;99.90;;;;;;2619830;54;19938;-71
2021/09/19 14:12:34;;;;;;;;;;;27.30;77.80;;;;;;2616946;54;27562;-75
2021/09/19 14:17:42;;;;;;;;;;;22.80;97.80;;;;;;2619989;54;19958;-74
2021/09/19 14:28:08;;;;;;;;;;;22.60;98.70;;;;;;2621162;54;19949;-74
2021/09/19 14:30:34;;;;;;;;;;;22.50;99.40;;;;;;2619901;54;19989;-72
2021/09/19 14:33:00;;;;;;;;;;;22.40;99.90;;;;;;2621797;54;19938;-75
2021/09/19 14:35:26;;;;;;;;;;;22.20;99.90;;;;;;2621512;54;19946;-76
2021/09/19 14:37:51;;;;;;;;;;;22.10;99.90;;;;;;2622375;39;20326;-75
2021/09/19 14:40:17;;;;;;;;;;;21.80;99.90;;;;;;2620575;54;19939;-72
2021/09/19 14:42:43;;;;;;;;;;;21.70;99.90;;;;;;2625048;54;19963;-78
2021/09/19 14:45:12;;;;;;;;;;;21.50;99.90;;;;;;2623144;54;19939;-73
2021/09/19 14:47:38;;;;;;;;;;;21.30;99.90;;;;;;2623352;54;19938;-71
2021/09/19 14:50:05;;;;;;;;;;;21.20;99.90;;;;;;2622960;47;19939;-75
2021/09/19 14:52:31;;;;;;;;;;;21.10;99.90;;;;;;2626910;39;20369;-71
2021/09/19 14:54:57;;;;;;;;;;;21.00;99.90;;;;;;2621246;47;19942;-74
2021/09/19 14:57:23;;;;;;;;;;;21.00;99.90;;;;;;2623467;54;19966;-71
2021/09/19 14:59:48;;;;;;;;;;;21.00;99.90;;;;;;2621975;47;19977;-73
2021/09/19 15:02:17;;;;;;;;;;;20.90;99.90;;;;;;2624579;54;19938;-72
2021/09/19 15:04:43;;;;;;;;;;;20.90;99.90;;;;;;2621068;54;19939;-70
2021/09/19 15:07:09;;;;;;;;;;;20.80;99.90;;;;;;2621462;54;19938;-76
2021/09/19 15:09:35;;;;;;;;;;;20.80;99.90;;;;;;2622931;54;19962;-70
2021/09/19 15:12:00;;;;;;;;;;;20.80;99.90;;;;;;2621944;46;19962;-72
2021/09/19 15:14:26;;;;;;;;;;;20.60;99.90;;;;;;2624545;54;19938;-73
2021/09/19 15:16:52;;;;;;;;;;;20.40;99.90;;;;;;2622356;54;19946;-71
2021/09/19 15:19:20;;;;;;;;;;;20.30;99.90;;;;;;2624926;54;19939;-75
2021/09/19 15:21:46;;;;;;;;;;;20.30;99.90;;;;;;2622405;54;19982;-72
2021/09/19 15:24:12;;;;;;;;;;;20.20;99.90;;;;;;2623413;54;19971;-73
2021/09/19 15:26:38;;;;;;;;;;;20.20;99.90;;;;;;2621339;54;19939;-71
2021/09/19 15:29:06;;;;;;;;;;;20.20;99.90;;;;;;2620273;54;20030;-70
2021/09/19 15:31:32;;;;;;;;;;;20.20;99.90;;;;;;2620219;54;19939;-69
2021/09/19 15:33:58;;;;;;;;;;;20.30;99.90;;;;;;2619080;47;19946;-67
2021/09/19 15:36:26;;;;;;;;;;;20.40;99.90;;;;;;2619969;54;19969;-71
2021/09/19 15:38:53;;;;;;;;;;;20.50;99.90;;;;;;2620126;39;20330;-69
2021/09/19 15:41:21;;;;;;;;;;;20.60;99.90;;;;;;2619827;54;19934;-72
2021/09/19 15:43:47;;;;;;;;;;;20.60;99.90;;;;;;2620573;54;19955;-70
2021/09/19 15:46:14;;;;;;;;;;;20.70;99.90;;;;;;2619003;54;19939;-70
2021/09/19 15:48:41;;;;;;;;;;;20.70;99.90;;;;;;2618704;46;19957;-68
2021/09/19 15:51:07;;;;;;;;;;;20.80;99.90;;;;;;2619669;54;19939;-74
2021/09/19 15:53:36;;;;;;;;;;;20.80;99.90;;;;;;2619813;54;19938;-68
2021/09/19 15:56:03;;;;;;;;;;;20.70;99.90;;;;;;2619377;54;19942;-71
2021/09/19 15:58:29;;;;;;;;;;;20.60;99.90;;;;;;2619181;54;19973;-69
2021/09/19 16:00:55;;;;;;;;;;;20.60;99.90;;;;;;2619410;54;19935;-71
2021/09/19 16:03:21;;;;;;;;;;;20.50;99.90;;;;;;2619228;54;19935;-70
2021/09/19 16:05:49;;;;;;;;;;;20.50;99.90;;;;;;2619331;54;19935;-68
2021/09/19 16:08:15;;;;;;;;;;;20.50;99.90;;;;;;2618666;46;19947;-71
2021/09/19 16:10:44;;;;;;;;;;;20.50;99.90;;;;;;2619393;54;19941;-68
2021/09/19 16:13:09;;;;;;;;;;;20.60;99.90;;;;;;2619296;54;19938;-68
2021/09/19 16:15:35;;;;;;;;;;;20.80;99.90;;;;;;2619272;54;19942;-69
2021/09/19 16:18:01;;;;;;;;;;;21.00;99.90;;;;;;2619203;54;19939;-73
2021/09/19 16:20:27;;;;;;;;;;;21.00;99.90;;;;;;2619128;54;19942;-73
2021/09/19 16:22:55;;;;;;;;;;;21.10;99.90;;;;;;2618638;46;19946;-68
2021/09/19 16:25:21;;;;;;;;;;;21.10;99.90;;;;;;2618264;47;19965;-70
2021/09/19 16:27:49;;;;;;;;;;;21.30;99.90;;;;;;2619641;39;20321;-70
2021/09/19 16:30:15;;;;;;;;;;;21.30;99.90;;;;;;2619251;54;19942;-70
2021/09/19 16:32:41;;;;;;;;;;;21.30;99.90;;;;;;2619263;54;20465;-69
2021/09/19 16:35:07;;;;;;;;;;;21.30;99.90;;;;;;2619151;54;19934;-71
2021/09/19 16:37:33;;;;;;;;;;;21.30;99.90;;;;;;2617964;54;19942;-70
2021/09/19 16:39:59;;;;;;;;;;;21.40;99.90;;;;;;2619212;54;20078;-71
2021/09/19 16:42:24;;;;;;;;;;;21.50;99.90;;;;;;2619104;54;20438;-69
